Startpagina
METAR-TAF:

METAR-TAF

Vliegvelden :

Luchthaven van Khartoem

Khartoem, Soedan

breedte: 15-36N, lengte: 032-33E, hoogte: 382 m

Actueel weer

Dit bericht is 41 minuten geleden gemaakt, om 16:30 UTC
Wind 7 kt uit het noordnoordwesten
Temperatuur 34°C
Vochtigheid 8%
Druk 1008 hPa
Zicht 10 km of meer
geen wolken onder 1500 m en geen cumulonimbus

METAR: HSSS 201630Z 34007KT CAVOK 34/M05 Q1008 NOSIG

Tijdstip: 20:11 (17:11 UTC)

Verwachting

Dit bericht is 6 uur en het 11 minuten geleden gemaakt, om 11:00 UTC
Verwachting geldig van 20 om 12 UTC tot 21 om 18 UTC
Wind 12 kt uit het noorden met uitschieters tot 20 kt
Zicht 10 km of meer
geen wolken onder 1500 m en geen cumulonimbus

TAF: HSSS 201100Z 2012/2118 36012G20KT CAVOK

Waarnemingen en weersverwachtingen van meer dan 4000 vliegvelden (METAR en TAF).

De beschikbare stations zijn de gele en rode punten op de kaart.

Ga met uw muis naar het station om de naam te zien.

Klik dan om waarnemingen en weersverwachtingen te zien.

kaart wijzigen: klik op de groene knoppen met een zwart kruis om in te zoomen, op de groene knop met een streepje om uit te zoomen of op de groene pijlen voor aangrenzende kaarten.


METAR-TAF: